Time;durP1;ratioP1;P1;durP2;ratioP2;P2;SDS_P1;SDS_P2;PMS_P1;PMS_P2;Temp;Humidity;BMP_temperature;BMP_pressure;BME280_temperature;BME280_humidity;BME280_pressure;Samples;Min_cycle;Max_cycle;Signal;HPM_P1;HPM_P2
2023/07/20 00:01:52;;;;;;;6.35;3.78;;;23.40;61.30;;;;;;5013849;28;20105;-75
2023/07/20 00:04:18;;;;;;;5.20;3.40;;;23.40;61.20;;;;;;5010090;28;20068;-75
2023/07/20 00:06:44;;;;;;;5.82;3.42;;;23.40;61.20;;;;;;5013860;28;20053;-75
2023/07/20 00:09:09;;;;;;;8.90;3.20;;;23.40;61.00;;;;;;5013367;28;20053;-76
2023/07/20 00:11:38;;;;;;;6.00;3.83;;;23.30;61.10;;;;;;5009773;28;20072;-76
2023/07/20 00:14:05;;;;;;;4.38;3.20;;;23.30;61.20;;;;;;4992008;28;20031;-75
2023/07/20 00:16:30;;;;;;;4.25;2.92;;;23.30;61.30;;;;;;4993622;28;20486;-76
2023/07/20 00:18:56;;;;;;;6.07;3.50;;;23.30;61.20;;;;;;4993749;28;20031;-75
2023/07/20 00:21:21;;;;;;;7.28;3.60;;;23.30;61.10;;;;;;4993270;28;20102;-76
2023/07/20 00:23:47;;;;;;;8.82;4.07;;;23.30;61.00;;;;;;4993923;28;20061;-76
2023/07/20 00:26:13;;;;;;;5.57;3.50;;;23.30;61.10;;;;;;5000299;28;20029;-76
2023/07/20 00:28:38;;;;;;;5.85;3.33;;;23.30;61.20;;;;;;5013451;28;20038;-76
2023/07/20 00:31:04;;;;;;;9.15;3.50;;;23.40;61.00;;;;;;5013447;28;20485;-75
2023/07/20 00:33:30;;;;;;;6.47;3.40;;;23.40;61.00;;;;;;5013073;28;20038;-76
2023/07/20 00:35:56;;;;;;;6.72;4.07;;;23.40;60.70;;;;;;5013428;28;20028;-76
2023/07/20 00:38:22;;;;;;;7.25;3.42;;;23.40;60.50;;;;;;5013042;28;20026;-76
2023/07/20 00:40:50;;;;;;;4.90;3.35;;;23.50;60.60;;;;;;5013363;28;20038;-76
2023/07/20 00:43:16;;;;;;;7.68;3.58;;;23.40;60.60;;;;;;5016870;28;20030;-76
2023/07/20 00:45:43;;;;;;;7.25;3.45;;;23.40;60.90;;;;;;5017753;28;20486;-76
2023/07/20 00:48:08;;;;;;;4.93;3.40;;;23.40;61.10;;;;;;5017653;28;20037;-75
2023/07/20 00:50:35;;;;;;;7.35;4.28;;;23.40;61.20;;;;;;5014499;28;20030;-75
2023/07/20 00:53:03;;;;;;;5.97;3.45;;;23.50;61.70;;;;;;5012924;28;20425;-75
2023/07/20 00:55:29;;;;;;;5.90;3.55;;;23.50;61.90;;;;;;5012582;28;20038;-74
2023/07/20 00:57:55;;;;;;;7.28;3.72;;;23.50;62.30;;;;;;5013086;28;20057;-75
2023/07/20 01:00:21;;;;;;;4.45;3.17;;;23.40;62.60;;;;;;5012615;28;20443;-75
2023/07/20 01:02:46;;;;;;;4.70;3.60;;;23.40;62.90;;;;;;5012792;28;20109;-74
2023/07/20 01:05:16;;;;;;;7.57;4.30;;;23.40;63.20;;;;;;5012968;28;20030;-74
2023/07/20 01:07:50;;;;;;;5.30;3.45;;;23.40;63.60;;;;;;5012390;28;20413;-74
2023/07/20 01:10:41;;;;;;;6.82;3.90;;;23.40;63.70;;;;;;5012628;28;20034;-74
2023/07/20 01:13:09;;;;;;;7.68;3.80;;;23.30;63.60;;;;;;5011893;28;20072;-74
2023/07/20 01:15:35;;;;;;;6.70;3.90;;;23.30;63.50;;;;;;5012235;28;20034;-74
2023/07/20 01:18:04;;;;;;;7.88;4.00;;;23.30;63.30;;;;;;5012580;28;20109;-74
2023/07/20 01:20:33;;;;;;;5.47;3.20;;;23.30;63.30;;;;;;5012320;28;20042;-75
2023/07/20 01:23:04;;;;;;;6.03;3.85;;;23.40;63.20;;;;;;5012851;28;20100;-74
2023/07/20 01:26:06;;;;;;;9.35;3.53;;;23.40;63.00;;;;;;5012351;28;20467;-75
2023/07/20 01:28:55;;;;;;;6.55;4.03;;;23.40;63.10;;;;;;5012393;28;20037;-75
2023/07/20 01:31:23;;;;;;;5.57;3.50;;;23.40;63.10;;;;;;5012275;28;20117;-75
2023/07/20 01:33:50;;;;;;;4.57;3.78;;;23.40;62.90;;;;;;5012950;28;20042;-74
2023/07/20 01:36:18;;;;;;;5.45;3.65;;;23.40;62.80;;;;;;4994931;28;20463;-76
2023/07/20 01:38:44;;;;;;;4.22;3.50;;;23.40;62.50;;;;;;5012686;28;20045;-75
2023/07/20 01:41:11;;;;;;;6.05;3.40;;;23.50;62.40;;;;;;5012370;28;20073;-75
2023/07/20 01:43:36;;;;;;;7.20;3.30;;;23.50;62.40;;;;;;5012457;28;20416;-75
2023/07/20 01:46:02;;;;;;;8.07;3.60;;;23.50;62.20;;;;;;5012668;28;20026;-75
2023/07/20 01:48:28;;;;;;;5.22;3.08;;;23.40;62.40;;;;;;5011898;28;20026;-75
2023/07/20 01:50:53;;;;;;;3.67;3.13;;;23.40;62.50;;;;;;5012357;28;20137;-75
2023/07/20 01:53:20;;;;;;;5.75;3.28;;;23.30;62.50;;;;;;5012542;28;20034;-76
2023/07/20 01:55:46;;;;;;;7.25;2.83;;;23.30;62.80;;;;;;5012460;28;20026;-75
2023/07/20 01:58:11;;;;;;;3.70;2.92;;;23.30;63.00;;;;;;5012446;28;20462;-75
2023/07/20 02:00:38;;;;;;;5.43;3.38;;;23.30;63.10;;;;;;5011719;28;20088;-75
2023/07/20 02:03:04;;;;;;;8.07;3.42;;;23.30;63.30;;;;;;5012432;28;20402;-75
2023/07/20 02:05:29;;;;;;;8.00;3.97;;;23.30;63.60;;;;;;5013018;28;20037;-76
2023/07/20 02:07:55;;;;;;;7.90;3.38;;;23.30;63.90;;;;;;5014806;28;20037;-75
2023/07/20 02:10:21;;;;;;;5.20;3.40;;;23.30;64.00;;;;;;4997100;28;20033;-76
2023/07/20 02:12:47;;;;;;;4.93;3.10;;;23.30;64.30;;;;;;4996392;28;20463;-75
2023/07/20 02:15:16;;;;;;;6.90;3.22;;;23.20;64.50;;;;;;4995975;28;20475;-75
2023/07/20 02:17:42;;;;;;;7.20;3.60;;;23.20;64.70;;;;;;4996099;28;20022;-75
2023/07/20 02:20:09;;;;;;;4.85;3.50;;;23.20;65.00;;;;;;4996266;28;20367;-75
2023/07/20 02:22:36;;;;;;;6.47;3.55;;;23.20;65.10;;;;;;4995928;28;20370;-76
2023/07/20 02:25:07;;;;;;;6.32;3.53;;;23.20;65.50;;;;;;4996156;28;20026;-75
2023/07/20 02:27:33;;;;;;;5.10;3.50;;;23.10;65.80;;;;;;4995705;28;20030;-76
2023/07/20 02:29:58;;;;;;;7.13;4.00;;;23.10;66.00;;;;;;5011975;28;20050;-75
2023/07/20 02:32:24;;;;;;;5.18;3.47;;;23.10;66.20;;;;;;5013994;28;20040;-76
2023/07/20 02:34:50;;;;;;;7.45;3.47;;;23.10;66.40;;;;;;5015760;28;20041;-75
2023/07/20 02:37:16;;;;;;;8.50;3.50;;;23.10;66.50;;;;;;5015530;28;20103;-75
2023/07/20 02:39:42;;;;;;;7.50;3.65;;;23.00;66.50;;;;;;5015053;28;20037;-75
2023/07/20 02:42:08;;;;;;;4.65;3.40;;;23.10;66.60;;;;;;5015479;28;20454;-74
2023/07/20 02:44:33;;;;;;;5.88;3.78;;;23.00;66.50;;;;;;5015031;28;20542;-75
2023/07/20 02:46:59;;;;;;;4.95;3.60;;;23.00;66.60;;;;;;5015363;28;20359;-76
2023/07/20 02:49:24;;;;;;;7.18;3.40;;;23.00;66.80;;;;;;5014664;28;20037;-76
2023/07/20 02:51:50;;;;;;;5.63;3.97;;;23.00;67.00;;;;;;5015250;28;20592;-76
2023/07/20 02:54:16;;;;;;;7.05;3.40;;;23.00;67.00;;;;;;5015012;28;20026;-76
2023/07/20 02:56:41;;;;;;;6.90;3.63;;;23.00;67.10;;;;;;5014750;28;20111;-76
2023/07/20 02:59:07;;;;;;;5.22;3.80;;;22.90;67.20;;;;;;5015100;28;20057;-76
2023/07/20 03:01:33;;;;;;;5.32;3.30;;;22.90;67.40;;;;;;5014416;28;20112;-76
2023/07/20 03:03:59;;;;;;;7.03;3.38;;;22.90;67.30;;;;;;5014938;28;20117;-76
2023/07/20 03:06:24;;;;;;;4.65;3.22;;;22.90;67.40;;;;;;5014417;28;20108;-74
2023/07/20 03:08:51;;;;;;;7.90;3.60;;;22.80;67.40;;;;;;5014682;28;20022;-74
2023/07/20 03:11:18;;;;;;;9.73;3.55;;;22.80;67.50;;;;;;5014796;28;20057;-74
2023/07/20 03:13:44;;;;;;;6.90;3.88;;;22.80;67.60;;;;;;5014477;28;20034;-74
2023/07/20 03:16:12;;;;;;;6.65;3.75;;;22.80;67.70;;;;;;5014613;28;20383;-74
2023/07/20 03:18:38;;;;;;;5.70;3.75;;;22.80;67.50;;;;;;5013961;28;20491;-74
2023/07/20 03:21:05;;;;;;;6.10;3.80;;;22.80;67.60;;;;;;5014641;28;20160;-74
2023/07/20 03:23:31;;;;;;;7.25;3.63;;;22.80;67.50;;;;;;5014256;28;20487;-74
2023/07/20 03:25:56;;;;;;;6.72;3.55;;;22.80;67.30;;;;;;5014569;28;20026;-74
2023/07/20 03:28:22;;;;;;;4.78;3.25;;;22.70;67.20;;;;;;5014507;28;20099;-75
2023/07/20 03:30:54;;;;;;;4.70;3.13;;;22.70;67.00;;;;;;5014040;28;20112;-74
2023/07/20 03:33:20;;;;;;;5.50;3.00;;;22.70;66.60;;;;;;5014474;28;20030;-75
2023/07/20 03:35:45;;;;;;;4.90;2.83;;;22.70;66.20;;;;;;5014334;28;20117;-76
2023/07/20 03:38:11;;;;;;;6.47;3.30;;;22.70;65.90;;;;;;5014435;28;20030;-74
2023/07/20 03:40:36;;;;;;;6.13;3.28;;;22.80;65.90;;;;;;5013876;28;20038;-76
2023/07/20 03:43:03;;;;;;;6.93;3.30;;;22.70;66.00;;;;;;5014107;28;20492;-76
2023/07/20 03:45:28;;;;;;;4.90;3.05;;;22.70;66.00;;;;;;5013564;28;20407;-74
2023/07/20 03:47:54;;;;;;;4.60;3.10;;;22.70;66.10;;;;;;5014275;28;20041;-75
2023/07/20 03:50:19;;;;;;;5.55;2.85;;;22.70;66.20;;;;;;5014122;28;20117;-75
2023/07/20 03:52:45;;;;;;;7.28;3.15;;;22.80;66.20;;;;;;5013735;28;20274;-75
2023/07/20 03:55:11;;;;;;;6.00;3.22;;;22.80;66.40;;;;;;5013916;28;20494;-75
2023/07/20 03:57:36;;;;;;;5.05;3.35;;;22.80;66.60;;;;;;4996261;28;20060;-75
2023/07/20 04:00:04;;;;;;;6.15;2.80;;;22.80;66.60;;;;;;5013897;28;20038;-75
2023/07/20 04:02:30;;;;;;;5.30;2.85;;;22.80;66.80;;;;;;5010303;28;20018;-75
2023/07/20 04:04:55;;;;;;;5.10;3.20;;;22.80;67.10;;;;;;4998070;28;20410;-75
2023/07/20 04:07:21;;;;;;;5.55;3.10;;;22.70;67.10;;;;;;4994498;28;20046;-75
2023/07/20 04:09:47;;;;;;;9.93;3.38;;;22.80;67.10;;;;;;4993869;28;20457;-75
2023/07/20 04:12:12;;;;;;;5.60;3.42;;;22.80;67.30;;;;;;4994182;28;20033;-75
2023/07/20 04:14:38;;;;;;;5.88;2.70;;;22.80;67.50;;;;;;4993842;28;20501;-75
2023/07/20 04:17:04;;;;;;;5.82;3.30;;;22.70;67.40;;;;;;4994294;28;20108;-75
2023/07/20 04:19:30;;;;;;;5.70;3.67;;;22.80;67.50;;;;;;4975998;28;20030;-76
2023/07/20 04:21:56;;;;;;;5.35;2.90;;;22.80;67.70;;;;;;4994283;28;20037;-76
2023/07/20 04:24:21;;;;;;;4.40;2.90;;;22.80;67.90;;;;;;4993727;28;20096;-76
2023/07/20 04:26:47;;;;;;;7.03;3.88;;;22.80;68.00;;;;;;4993534;28;20022;-74
2023/07/20 04:29:13;;;;;;;6.32;3.28;;;22.80;68.40;;;;;;4992710;28;20049;-74
2023/07/20 04:31:38;;;;;;;5.63;2.90;;;22.80;68.50;;;;;;4993390;28;20034;-75
2023/07/20 04:34:04;;;;;;;5.97;3.30;;;22.80;68.90;;;;;;4993769;28;20025;-73
2023/07/20 04:36:29;;;;;;;5.05;3.08;;;22.80;69.00;;;;;;4993459;28;20478;-74
2023/07/20 04:38:55;;;;;;;4.85;3.47;;;22.80;69.10;;;;;;4994755;28;20026;-76
2023/07/20 04:41:21;;;;;;;6.68;3.13;;;22.80;69.20;;;;;;4993701;28;20394;-75
2023/07/20 04:43:47;;;;;;;6.22;3.40;;;22.90;69.40;;;;;;4993355;28;20030;-75
2023/07/20 04:46:12;;;;;;;5.13;3.78;;;22.80;69.60;;;;;;4993669;28;20117;-76
2023/07/20 04:48:40;;;;;;;6.60;2.92;;;22.90;69.90;;;;;;4993337;28;20030;-76
2023/07/20 04:51:06;;;;;;;5.93;3.60;;;22.80;70.10;;;;;;4993660;28;20027;-76
2023/07/20 04:53:31;;;;;;;6.00;3.25;;;22.80;70.50;;;;;;4993189;28;20041;-74
2023/07/20 04:55:57;;;;;;;8.27;3.97;;;22.80;70.40;;;;;;4975953;28;20331;-75
2023/07/20 04:58:23;;;;;;;9.48;3.88;;;22.80;70.70;;;;;;4993139;28;20022;-74
2023/07/20 05:00:49;;;;;;;5.43;3.33;;;22.80;71.20;;;;;;4992977;28;20409;-75
2023/07/20 05:03:15;;;;;;;9.60;3.70;;;22.80;71.30;;;;;;4993291;28;20434;-75
2023/07/20 05:05:40;;;;;;;6.35;3.42;;;22.90;71.40;;;;;;4975473;28;20050;-75
2023/07/20 05:08:06;;;;;;;4.70;3.53;;;23.00;71.40;;;;;;4994643;28;20023;-75
2023/07/20 05:10:32;;;;;;;4.53;3.10;;;23.10;71.00;;;;;;4992981;28;20462;-75
2023/07/20 05:12:58;;;;;;;5.38;3.63;;;23.30;70.30;;;;;;4993091;28;20026;-74
2023/07/20 05:15:24;;;;;;;8.63;3.60;;;23.50;69.60;;;;;;4993500;28;20106;-74
2023/07/20 05:17:50;;;;;;;6.25;3.40;;;23.50;69.40;;;;;;4992884;28;20109;-75
2023/07/20 05:20:15;;;;;;;4.90;3.35;;;23.50;69.00;;;;;;4993204;28;20045;-74
2023/07/20 05:22:41;;;;;;;6.65;3.35;;;23.60;68.80;;;;;;4993242;28;20076;-75
2023/07/20 05:25:08;;;;;;;5.28;3.50;;;23.60;69.00;;;;;;4996442;28;20031;-75
2023/07/20 05:27:35;;;;;;;9.50;3.50;;;23.60;69.00;;;;;;4995253;28;20037;-75
2023/07/20 05:30:01;;;;;;;7.68;3.45;;;23.60;68.70;;;;;;4995481;28;20070;-74
2023/07/20 05:32:27;;;;;;;6.40;3.30;;;23.80;68.90;;;;;;4994257;28;20027;-75
2023/07/20 05:34:54;;;;;;;6.97;3.35;;;24.00;67.60;;;;;;4992799;28;20031;-76
2023/07/20 05:37:20;;;;;;;7.05;3.30;;;24.20;67.10;;;;;;4992769;28;20490;-74
2023/07/20 05:39:45;;;;;;;3.72;2.88;;;24.40;66.90;;;;;;4975924;28;20169;-75
2023/07/20 05:42:11;;;;;;;4.80;3.15;;;25.10;65.60;;;;;;4996749;28;20125;-76
2023/07/20 05:44:37;;;;;;;5.75;3.03;;;25.70;62.40;;;;;;4996757;28;20032;-76
2023/07/20 05:47:02;;;;;;;7.70;3.30;;;26.40;61.00;;;;;;4997082;28;20033;-76
2023/07/20 05:49:28;;;;;;;7.03;3.30;;;27.20;60.10;;;;;;4996432;28;20034;-76
2023/07/20 05:51:55;;;;;;;7.50;3.05;;;27.80;57.10;;;;;;4996239;28;20414;-76
2023/07/20 05:54:21;;;;;;;6.38;2.97;;;28.40;55.70;;;;;;4996781;28;20038;-75
2023/07/20 05:56:47;;;;;;;7.18;3.47;;;28.90;54.40;;;;;;4996305;28;20037;-76
2023/07/20 05:59:13;;;;;;;8.73;3.47;;;29.10;53.60;;;;;;4996565;28;20057;-75
2023/07/20 06:01:38;;;;;;;5.43;2.92;;;29.80;52.70;;;;;;4996248;28;20034;-75
2023/07/20 06:04:04;;;;;;;6.95;3.10;;;30.40;50.90;;;;;;5002583;28;20454;-75
2023/07/20 06:06:29;;;;;;;4.35;2.78;;;30.80;50.10;;;;;;5016016;28;20078;-75
2023/07/20 06:08:55;;;;;;;4.72;2.78;;;31.50;48.70;;;;;;5015516;28;20568;-76
2023/07/20 06:11:21;;;;;;;5.65;2.80;;;32.00;47.20;;;;;;5016175;28;20057;-76
2023/07/20 06:13:46;;;;;;;4.90;2.55;;;32.40;47.10;;;;;;5003920;28;20157;-75
2023/07/20 06:16:12;;;;;;;4.47;2.65;;;32.80;45.80;;;;;;4996778;28;20034;-76
2023/07/20 06:18:38;;;;;;;6.47;2.72;;;32.90;45.00;;;;;;4995949;28;20161;-77
2023/07/20 06:21:04;;;;;;;2.95;2.22;;;32.90;44.60;;;;;;4996162;28;20041;-76
2023/07/20 06:23:30;;;;;;;3.80;2.20;;;33.40;43.80;;;;;;4996200;28;20422;-75
2023/07/20 06:25:56;;;;;;;6.60;2.78;;;33.80;43.50;;;;;;4995421;28;20022;-75
2023/07/20 06:28:21;;;;;;;3.53;2.60;;;34.00;42.60;;;;;;4996269;28;20085;-75
2023/07/20 06:30:47;;;;;;;4.60;2.92;;;34.20;42.50;;;;;;4996764;28;21030;-75
2023/07/20 06:33:12;;;;;;;7.38;3.17;;;34.80;41.60;;;;;;5015566;28;20033;-75
2023/07/20 06:35:42;;;;;;;3.58;2.70;;;34.80;41.20;;;;;;5015148;28;20098;-76
2023/07/20 06:38:08;;;;;;;;;;;35.10;40.80;;;;;;5015928;28;20030;-76
2023/07/20 06:40:33;;;;;;;3.88;3.00;;;35.60;40.50;;;;;;5015422;28;19920;-75
2023/07/20 06:42:59;;;;;;;4.65;2.33;;;36.10;39.00;;;;;;5015226;28;20034;-74
2023/07/20 06:45:25;;;;;;;5.15;2.47;;;35.90;38.60;;;;;;5015423;28;20068;-74
2023/07/20 06:47:51;;;;;;;5.30;2.72;;;35.70;38.60;;;;;;5014925;28;20022;-75
2023/07/20 06:50:16;;;;;;;3.65;2.70;;;35.80;38.80;;;;;;5015164;28;20026;-74
2023/07/20 06:52:42;;;;;;;5.20;2.30;;;36.10;38.60;;;;;;5013822;28;20026;-77
2023/07/20 06:55:08;;;;;;;7.45;2.38;;;36.10;38.20;;;;;;5015196;28;20492;-75
2023/07/20 06:57:34;;;;;;;4.18;3.10;;;35.80;38.40;;;;;;5014905;28;20022;-76
2023/07/20 06:59:59;;;;;;;3.38;2.50;;;35.90;37.60;;;;;;5014505;28;20370;-76
2023/07/20 07:02:25;;;;;;;4.47;2.47;;;35.60;37.80;;;;;;5014932;28;20371;-75
2023/07/20 07:04:50;;;;;;;4.15;2.80;;;35.00;38.70;;;;;;5014569;28;20034;-75
2023/07/20 07:07:16;;;;;;;3.65;2.80;;;35.10;39.40;;;;;;5014466;28;20050;-75
2023/07/20 07:09:42;;;;;;;8.85;2.40;;;35.50;38.60;;;;;;5014148;28;20037;-76
2023/07/20 07:12:08;;;;;;;4.35;2.25;;;34.90;38.90;;;;;;5014554;28;20022;-75
2023/07/20 07:14:34;;;;;;;4.57;2.40;;;34.20;39.50;;;;;;5014776;28;20029;-76
2023/07/20 07:17:00;;;;;;;5.13;2.92;;;33.80;41.10;;;;;;5014230;28;20061;-75
2023/07/20 07:19:26;;;;;;;4.55;3.03;;;33.40;40.30;;;;;;5014480;28;20038;-76
2023/07/20 07:21:51;;;;;;;5.43;2.88;;;32.90;41.70;;;;;;5014539;28;20458;-76
2023/07/20 07:24:17;;;;;;;11.15;2.83;;;33.00;42.30;;;;;;5014778;28;20025;-76
2023/07/20 07:26:42;;;;;;;4.97;2.40;;;32.50;41.90;;;;;;5014252;28;20034;-76
2023/07/20 07:29:08;;;;;;;5.55;2.90;;;31.80;43.20;;;;;;5014542;28;20026;-76
2023/07/20 07:31:35;;;;;;;4.18;3.03;;;31.90;43.50;;;;;;5014395;28;20108;-75
2023/07/20 07:34:02;;;;;;;4.57;2.83;;;31.50;44.00;;;;;;5013874;28;20037;-76
2023/07/20 07:36:28;;;;;;;5.60;3.25;;;31.30;45.10;;;;;;5014294;28;20098;-75
2023/07/20 07:38:53;;;;;;;4.03;2.40;;;30.90;45.30;;;;;;5013677;28;20188;-76
2023/07/20 07:41:19;;;;;;;4.47;2.92;;;30.70;45.70;;;;;;5014223;28;20034;-76
2023/07/20 07:43:44;;;;;;;8.10;3.00;;;30.30;46.20;;;;;;5013622;28;20029;-76
2023/07/20 07:46:10;;;;;;;3.70;2.83;;;30.40;47.10;;;;;;5014205;28;20030;-76
2023/07/20 07:48:36;;;;;;;5.07;3.03;;;30.30;47.10;;;;;;5014169;28;20489;-75
2023/07/20 07:51:01;;;;;;;3.97;2.72;;;29.60;48.10;;;;;;5013605;28;20034;-76
2023/07/20 07:53:27;;;;;;;7.53;2.78;;;30.00;49.40;;;;;;5014067;28;20109;-76
2023/07/20 07:55:53;;;;;;;4.38;2.80;;;30.10;49.00;;;;;;5013682;28;20022;-75
2023/07/20 07:58:19;;;;;;;4.85;2.72;;;30.10;48.20;;;;;;5014267;28;20037;-75
2023/07/20 08:00:44;;;;;;;5.63;2.70;;;30.40;48.10;;;;;;5013388;28;20034;-75
2023/07/20 08:03:10;;;;;;;4.32;3.08;;;30.90;47.10;;;;;;5013631;28;20080;-75
2023/07/20 08:05:36;;;;;;;3.65;2.72;;;30.90;47.10;;;;;;5010577;28;20037;-76
2023/07/20 08:08:03;;;;;;;10.05;3.17;;;30.90;46.70;;;;;;5013789;28;20057;-76
2023/07/20 08:10:29;;;;;;;3.28;2.67;;;30.80;46.20;;;;;;5013776;28;20068;-76
2023/07/20 08:12:55;;;;;;;4.32;2.70;;;30.50;46.10;;;;;;5013548;28;20022;-76
2023/07/20 08:15:21;;;;;;;3.65;2.53;;;31.00;47.40;;;;;;5013751;28;20164;-76
2023/07/20 08:17:48;;;;;;;5.93;3.10;;;31.50;47.20;;;;;;5013045;28;20305;-76
2023/07/20 08:20:16;;;;;;;8.55;3.28;;;32.10;46.00;;;;;;4997039;28;20073;-74
2023/07/20 08:22:41;;;;;;;7.55;2.53;;;32.50;44.70;;;;;;4993717;28;20033;-73
2023/07/20 08:25:08;;;;;;;4.13;2.47;;;33.00;43.50;;;;;;4997220;28;20022;-75
2023/07/20 08:27:34;;;;;;;6.60;2.60;;;33.30;42.30;;;;;;5013615;28;20040;-75
2023/07/20 08:29:59;;;;;;;4.93;2.80;;;33.60;41.80;;;;;;5012989;28;20034;-76
2023/07/20 08:32:26;;;;;;;5.75;2.70;;;33.30;41.10;;;;;;5013593;28;20031;-75
2023/07/20 08:34:52;;;;;;;4.88;3.10;;;32.90;41.50;;;;;;5012851;28;20061;-76
2023/07/20 08:37:17;;;;;;;5.30;2.53;;;32.40;42.20;;;;;;5013328;28;20065;-75
2023/07/20 08:39:43;;;;;;;4.45;2.42;;;31.90;43.00;;;;;;5013405;28;20367;-76
2023/07/20 08:42:10;;;;;;;4.55;2.78;;;31.30;43.60;;;;;;5012923;28;20030;-76
2023/07/20 08:44:38;;;;;;;6.55;2.67;;;30.70;44.70;;;;;;5013267;28;20105;-76
2023/07/20 08:47:05;;;;;;;4.25;2.60;;;30.30;46.00;;;;;;5012776;28;20036;-76
2023/07/20 08:49:35;;;;;;;4.68;2.50;;;29.90;46.90;;;;;;5012881;28;20061;-76
2023/07/20 08:52:00;;;;;;;3.53;2.20;;;29.60;47.40;;;;;;5012712;28;20026;-76
2023/07/20 08:54:32;;;;;;;6.40;3.45;;;29.60;47.90;;;;;;5013213;28;20022;-76
2023/07/20 08:57:00;;;;;;;3.65;2.35;;;29.20;48.60;;;;;;5012831;28;20033;-76
2023/07/20 08:59:28;;;;;;;8.07;2.58;;;28.90;49.10;;;;;;5013057;28;20038;-76
2023/07/20 09:01:55;;;;;;;5.13;2.80;;;28.70;49.40;;;;;;5012456;28;20087;-74
2023/07/20 09:04:20;;;;;;;3.10;2.20;;;28.60;49.80;;;;;;5012884;28;20335;-74
2023/07/20 09:06:47;;;;;;;7.28;2.78;;;28.40;50.10;;;;;;5012404;28;20053;-74
2023/07/20 09:09:13;;;;;;;5.10;2.70;;;28.50;50.60;;;;;;5012771;28;20060;-74
2023/07/20 09:11:40;;;;;;;4.32;2.83;;;28.50;50.50;;;;;;5012622;28;20030;-74
2023/07/20 09:14:07;;;;;;;4.72;2.75;;;28.20;50.70;;;;;;5012231;28;20108;-74
2023/07/20 09:16:47;;;;;;;7.05;2.60;;;28.30;51.00;;;;;;5012483;28;20064;-75
2023/07/20 09:19:15;;;;;;;4.65;2.58;;;28.40;51.10;;;;;;5012303;28;20363;-75
2023/07/20 09:21:41;;;;;;;5.90;2.30;;;28.40;50.80;;;;;;5012756;28;20032;-75
2023/07/20 09:24:06;;;;;;;4.13;2.72;;;28.60;50.90;;;;;;5012708;28;20045;-74
2023/07/20 09:26:41;;;;;;;2.78;2.00;;;28.60;50.50;;;;;;5012485;28;20466;-75
2023/07/20 09:29:09;;;;;;;3.40;2.50;;;28.70;50.60;;;;;;5012330;28;20026;-75
2023/07/20 09:31:34;;;;;;;3.78;2.50;;;28.50;49.70;;;;;;5012716;28;20351;-75
2023/07/20 09:34:00;;;;;;;6.75;2.88;;;28.50;50.00;;;;;;5011892;28;20057;-75
2023/07/20 09:36:29;;;;;;;6.18;2.60;;;28.50;50.20;;;;;;5012765;28;20080;-74
2023/07/20 09:38:54;;;;;;;6.25;3.00;;;28.40;50.70;;;;;;5012008;28;20328;-75
2023/07/20 09:41:21;;;;;;;3.42;2.22;;;28.50;50.80;;;;;;5012540;28;20034;-74
2023/07/20 09:43:47;;;;;;;2.85;2.50;;;28.40;51.00;;;;;;5012495;28;20034;-74
2023/07/20 09:46:13;;;;;;;7.05;2.72;;;28.30;49.70;;;;;;5012106;28;20101;-74
2023/07/20 09:48:39;;;;;;;7.20;2.90;;;28.10;50.80;;;;;;4995164;28;20496;-74
2023/07/20 09:51:06;;;;;;;6.03;3.13;;;28.10;51.10;;;;;;5012024;28;20083;-74
2023/07/20 09:53:33;;;;;;;5.93;3.45;;;28.10;51.60;;;;;;5012437;28;20424;-74
2023/07/20 09:55:59;;;;;;;5.15;2.90;;;28.00;51.50;;;;;;4997602;28;20038;-76
2023/07/20 09:58:31;;;;;;;7.68;3.33;;;27.90;50.60;;;;;;4992850;28;20116;-75
2023/07/20 10:00:59;;;;;;;6.07;3.00;;;27.80;50.90;;;;;;4992430;28;20042;-76
2023/07/20 10:03:30;;;;;;;4.53;2.25;;;27.70;50.70;;;;;;4992790;28;20034;-76
2023/07/20 10:06:05;;;;;;;6.63;2.25;;;27.70;51.70;;;;;;4992175;28;20078;-76
2023/07/20 10:08:33;;;;;;;6.13;2.25;;;27.60;51.80;;;;;;4992479;28;20030;-75
2023/07/20 10:11:01;;;;;;;11.93;2.50;;;27.60;52.30;;;;;;4992252;28;20042;-76
2023/07/20 10:13:29;;;;;;;5.18;2.80;;;27.40;51.90;;;;;;4992619;28;20048;-76
2023/07/20 10:16:02;;;;;;;4.90;2.20;;;27.30;51.00;;;;;;4992039;28;20077;-76
2023/07/20 10:18:48;;;;;;;8.60;2.65;;;27.30;51.20;;;;;;4992896;28;20455;-76
2023/07/20 10:21:16;;;;;;;3.72;2.33;;;27.30;50.80;;;;;;4972791;28;20354;-75
2023/07/20 10:23:42;;;;;;;5.28;2.35;;;27.20;50.60;;;;;;4973200;28;20046;-76
2023/07/20 10:26:09;;;;;;;3.75;2.40;;;27.20;50.60;;;;;;4955398;28;20031;-76
2023/07/20 10:28:36;;;;;;;7.40;2.40;;;27.10;50.80;;;;;;4976142;28;20332;-76
2023/07/20 10:31:02;;;;;;;6.32;2.40;;;27.20;50.00;;;;;;4975880;28;20039;-76
2023/07/20 10:33:28;;;;;;;7.18;2.15;;;27.20;50.00;;;;;;4976170;28;20415;-75
2023/07/20 10:36:03;;;;;;;5.63;2.13;;;27.10;50.00;;;;;;4975980;28;20023;-75
2023/07/20 10:38:40;;;;;;;5.57;2.20;;;27.20;50.80;;;;;;4976572;28;20118;-75
2023/07/20 10:41:16;;;;;;;4.95;2.13;;;27.30;49.10;;;;;;4975850;28;20074;-75
2023/07/20 10:43:45;;;;;;;4.15;2.15;;;27.30;48.90;;;;;;4975999;28;20475;-75
2023/07/20 10:46:12;;;;;;;2.85;1.98;;;27.40;49.20;;;;;;4958416;28;20505;-75
2023/07/20 10:49:02;;;;;;;6.40;2.00;;;27.50;49.70;;;;;;4976137;28;20042;-75
2023/07/20 10:51:28;;;;;;;4.43;2.10;;;27.50;48.90;;;;;;4976290;28;20030;-75
2023/07/20 10:53:58;;;;;;;5.95;2.13;;;27.60;48.70;;;;;;4976165;28;20046;-75
2023/07/20 10:56:27;;;;;;;5.82;2.60;;;27.50;48.90;;;;;;4976142;28;20032;-75
2023/07/20 10:59:00;;;;;;;4.22;2.30;;;27.50;48.80;;;;;;4975991;28;20023;-75
2023/07/20 11:01:30;;;;;;;5.43;2.38;;;27.50;48.40;;;;;;4975842;28;20430;-75
2023/07/20 11:04:00;;;;;;;5.28;2.08;;;27.50;48.20;;;;;;4975905;28;20353;-74
2023/07/20 11:06:25;;;;;;;3.08;1.98;;;27.60;47.80;;;;;;4975712;28;20055;-75
2023/07/20 11:09:10;;;;;;;4.72;2.25;;;27.50;47.90;;;;;;4975777;28;20145;-75
2023/07/20 11:11:37;;;;;;;8.15;1.95;;;27.50;48.50;;;;;;4975768;28;20070;-75
2023/07/20 11:14:06;;;;;;;5.00;2.20;;;27.50;48.70;;;;;;4975379;28;20035;-75
2023/07/20 11:16:46;;;;;;;3.88;1.98;;;27.40;48.20;;;;;;4975668;28;20085;-75
2023/07/20 11:19:23;;;;;;;2.78;1.70;;;27.50;49.00;;;;;;4975191;28;20033;-75
2023/07/20 11:21:59;;;;;;;2.40;1.73;;;27.60;48.70;;;;;;4979145;28;20027;-75
2023/07/20 11:24:24;;;;;;;4.40;1.98;;;27.60;48.20;;;;;;4979049;28;20023;-75
2023/07/20 11:26:52;;;;;;;2.97;1.70;;;27.70;47.60;;;;;;4977327;28;20030;-75
2023/07/20 11:29:19;;;;;;;5.50;2.00;;;27.80;47.30;;;;;;4976423;28;20493;-75
2023/07/20 11:31:47;;;;;;;5.97;2.10;;;27.80;48.00;;;;;;4975573;28;20082;-75
2023/07/20 11:34:20;;;;;;;3.78;1.98;;;27.90;48.00;;;;;;4974723;28;20467;-75
2023/07/20 11:36:47;;;;;;;2.45;2.10;;;28.00;46.50;;;;;;4975169;28;20530;-75
2023/07/20 11:39:15;;;;;;;3.30;2.00;;;28.00;45.80;;;;;;4973134;28;20078;-73
2023/07/20 11:41:48;;;;;;;3.67;2.00;;;28.10;45.50;;;;;;4975287;28;20072;-74
2023/07/20 11:44:15;;;;;;;4.55;1.92;;;28.10;45.60;;;;;;4974945;28;20055;-74
2023/07/20 11:46:42;;;;;;;7.07;2.40;;;28.10;45.70;;;;;;4975211;28;20027;-74
2023/07/20 11:49:08;;;;;;;5.10;1.73;;;28.00;45.70;;;;;;4974868;28;20356;-74
2023/07/20 11:51:35;;;;;;;2.30;1.70;;;28.00;45.30;;;;;;4974943;28;20022;-74
2023/07/20 11:54:02;;;;;;;2.88;1.80;;;28.00;45.10;;;;;;4982063;28;20026;-75
2023/07/20 11:56:28;;;;;;;4.25;2.13;;;28.00;43.80;;;;;;4994388;28;20073;-74
2023/07/20 11:59:01;;;;;;;5.40;1.90;;;28.00;45.10;;;;;;4994477;28;20065;-74
2023/07/20 12:01:35;;;;;;;4.15;1.80;;;28.00;45.40;;;;;;4994215;28;20066;-74
2023/07/20 12:04:02;;;;;;;6.10;2.30;;;27.90;45.70;;;;;;4994329;28;20063;-74
2023/07/20 12:06:29;;;;;;;4.65;1.88;;;27.90;46.20;;;;;;4994129;28;20505;-74
2023/07/20 12:08:57;;;;;;;5.05;1.92;;;27.90;45.40;;;;;;4994023;28;20026;-74
2023/07/20 12:11:37;;;;;;;3.80;1.70;;;27.90;45.90;;;;;;4993689;28;20034;-74
2023/07/20 12:14:09;;;;;;;5.22;1.88;;;28.00;46.30;;;;;;4993756;28;20486;-75
2023/07/20 12:16:36;;;;;;;2.92;1.60;;;28.10;45.60;;;;;;4993784;28;20034;-74
2023/07/20 12:19:08;;;;;;;2.65;1.65;;;28.10;44.90;;;;;;4993938;28;20139;-74
2023/07/20 12:21:38;;;;;;;4.93;2.00;;;28.00;44.50;;;;;;4993939;28;20034;-74
2023/07/20 12:24:04;;;;;;;4.05;1.70;;;28.10;45.30;;;;;;5009117;28;20025;-75
2023/07/20 12:26:32;;;;;;;3.28;1.60;;;28.10;45.40;;;;;;4993214;28;20031;-74
2023/07/20 12:28:58;;;;;;;2.83;1.63;;;28.10;44.60;;;;;;4993742;28;20383;-74
2023/07/20 12:31:24;;;;;;;6.38;1.52;;;28.00;44.70;;;;;;4993375;28;20206;-74
2023/07/20 12:33:51;;;;;;;5.50;1.60;;;27.90;44.60;;;;;;4993770;28;20022;-74
2023/07/20 12:36:18;;;;;;;4.63;1.75;;;27.90;44.80;;;;;;4993191;28;20126;-75
2023/07/20 12:38:43;;;;;;;3.25;1.40;;;27.80;44.60;;;;;;4993442;28;20066;-74
2023/07/20 12:41:14;;;;;;;5.32;1.48;;;27.80;44.50;;;;;;4975619;28;20081;-75
2023/07/20 12:43:44;;;;;;;3.95;1.85;;;27.70;44.50;;;;;;4993791;28;20121;-74
2023/07/20 12:46:11;;;;;;;3.38;1.73;;;27.70;44.60;;;;;;4992903;28;20486;-74
2023/07/20 12:48:37;;;;;;;5.72;1.77;;;27.70;45.30;;;;;;4993294;28;20486;-74